createdAt,value
2023-02-08T00:01:31.862Z,9.04
2023-02-08T00:04:00.459Z,9.02
2023-02-08T00:06:29.296Z,9.03
2023-02-08T00:09:01.210Z,9.01
2023-02-08T00:11:29.621Z,9.00
2023-02-08T00:13:58.048Z,8.99
2023-02-08T00:16:26.559Z,8.98
2023-02-08T00:18:54.930Z,8.97
2023-02-08T00:21:23.598Z,8.96
2023-02-08T00:23:52.049Z,8.96
2023-02-08T00:26:22.117Z,8.96
2023-02-08T00:28:51.273Z,8.94
2023-02-08T00:31:19.862Z,8.93
2023-02-08T00:33:48.552Z,8.94
2023-02-08T00:36:17.117Z,8.93
2023-02-08T00:38:45.912Z,8.91
2023-02-08T00:41:14.386Z,8.90
2023-02-08T00:43:44.287Z,8.89
2023-02-08T00:46:13.017Z,8.88
2023-02-08T00:48:41.771Z,8.87
2023-02-08T00:51:13.628Z,8.87
2023-02-08T00:53:44.495Z,8.86
2023-02-08T00:56:15.210Z,8.84
2023-02-08T00:58:45.565Z,8.82
2023-02-08T01:01:14.456Z,8.81
2023-02-08T01:03:45.430Z,8.80
2023-02-08T01:06:19.140Z,8.80
2023-02-08T01:08:47.952Z,8.78
2023-02-08T01:11:21.830Z,8.76
2023-02-08T01:13:53.613Z,8.74
2023-02-08T01:16:24.655Z,8.74
2023-02-08T01:18:56.747Z,8.71
2023-02-08T01:21:27.845Z,8.72
2023-02-08T01:23:57.553Z,8.70
2023-02-08T01:26:27.243Z,8.70
2023-02-08T01:28:58.123Z,8.68
2023-02-08T01:31:29.963Z,8.67
2023-02-08T01:33:59.338Z,8.65
2023-02-08T01:36:30.244Z,8.63
2023-02-08T01:38:59.081Z,8.63
2023-02-08T01:41:30.402Z,8.62
2023-02-08T01:45:07.549Z,8.59
2023-02-08T01:47:36.793Z,8.55
2023-02-08T01:50:07.924Z,8.55
2023-02-08T01:52:36.490Z,8.54
2023-02-08T01:55:11.358Z,8.55
2023-02-08T01:57:41.356Z,8.53
2023-02-08T02:00:17.876Z,8.52
2023-02-08T02:02:49.033Z,8.51
2023-02-08T02:05:20.320Z,8.51
2023-02-08T02:07:50.131Z,8.50
2023-02-08T02:10:25.865Z,8.49
2023-02-08T02:12:56.967Z,8.48
2023-02-08T02:15:26.961Z,8.47
2023-02-08T02:17:56.280Z,8.44
2023-02-08T02:20:39.606Z,8.47
2023-02-08T02:23:41.734Z,8.43
2023-02-08T02:26:52.106Z,8.40
2023-02-08T02:29:59.620Z,8.37
2023-02-08T02:32:58.813Z,8.35
2023-02-08T02:35:37.996Z,8.35
2023-02-08T02:38:15.024Z,8.34
2023-02-08T02:40:56.781Z,8.35
2023-02-08T02:43:42.105Z,8.35
2023-02-08T02:46:25.914Z,8.32
2023-02-08T02:49:03.845Z,8.31
2023-02-08T02:51:40.807Z,8.31
2023-02-08T02:54:16.305Z,8.30
2023-02-08T02:56:49.552Z,8.30
2023-02-08T02:59:19.559Z,8.29
2023-02-08T03:01:48.870Z,8.29
2023-02-08T03:04:50.492Z,8.27
2023-02-08T03:07:39.170Z,8.24
2023-02-08T03:10:23.976Z,8.22
2023-02-08T03:13:06.144Z,8.21
2023-02-08T03:15:45.711Z,8.21
2023-02-08T03:18:30.567Z,8.20
2023-02-08T03:21:11.617Z,8.19
2023-02-08T03:23:48.303Z,8.19
2023-02-08T03:26:27.948Z,8.18
2023-02-08T03:29:05.841Z,8.18
2023-02-08T03:31:39.936Z,8.17
2023-02-08T03:34:13.259Z,8.16
2023-02-08T03:36:49.091Z,8.15
2023-02-08T03:39:22.649Z,8.13
2023-02-08T03:41:55.331Z,8.13
2023-02-08T03:44:29.421Z,8.12
2023-02-08T03:47:02.748Z,8.12
2023-02-08T03:49:36.329Z,8.11
2023-02-08T03:52:10.893Z,8.10
2023-02-08T03:54:46.385Z,8.10
2023-02-08T03:57:20.346Z,8.10
2023-02-08T03:59:55.429Z,8.10
2023-02-08T04:02:28.369Z,8.08
2023-02-08T04:04:58.283Z,8.07
2023-02-08T04:07:28.578Z,8.07
2023-02-08T04:09:56.994Z,8.06
2023-02-08T04:12:25.396Z,8.05
2023-02-08T04:14:53.792Z,8.03
2023-02-08T04:17:22.190Z,8.03
2023-02-08T04:19:50.621Z,8.02
2023-02-08T04:22:19.210Z,8.02
2023-02-08T04:24:49.054Z,8.01
2023-02-08T04:27:17.469Z,7.97
2023-02-08T04:29:46.158Z,7.96
2023-02-08T04:32:14.724Z,7.96
2023-02-08T04:34:43.373Z,7.95
2023-02-08T04:37:12.479Z,7.94
2023-02-08T04:39:40.931Z,7.93
2023-02-08T04:42:11.365Z,7.93
2023-02-08T04:44:39.777Z,7.90
2023-02-08T04:47:08.339Z,7.91
2023-02-08T04:49:36.767Z,7.89
2023-02-08T04:52:05.858Z,7.89
2023-02-08T04:54:34.709Z,7.88
2023-02-08T04:57:03.744Z,7.87
2023-02-08T04:59:33.605Z,7.86
2023-02-08T05:02:02.143Z,7.85
2023-02-08T05:04:31.832Z,7.85
2023-02-08T05:07:00.555Z,7.84
2023-02-08T05:09:29.108Z,7.83
2023-02-08T05:11:57.819Z,7.81
2023-02-08T05:14:26.353Z,7.80
2023-02-08T05:16:56.663Z,7.81
2023-02-08T05:19:25.127Z,7.77
2023-02-08T05:21:53.862Z,7.76
2023-02-08T05:24:22.236Z,7.73
2023-02-08T05:26:50.740Z,7.72
2023-02-08T05:29:19.301Z,7.69
2023-02-08T05:31:47.732Z,7.69
2023-02-08T05:34:17.563Z,7.69
2023-02-08T05:36:45.974Z,7.67
2023-02-08T05:39:14.508Z,7.67
2023-02-08T05:41:42.899Z,7.66
2023-02-08T05:44:11.353Z,7.67
2023-02-08T05:46:40.086Z,7.65
2023-02-08T05:49:08.569Z,7.66
2023-02-08T05:51:38.368Z,7.65
2023-02-08T05:54:06.897Z,7.62
2023-02-08T05:56:35.756Z,7.61
2023-02-08T05:59:05.246Z,7.60
2023-02-08T06:01:33.813Z,7.59
2023-02-08T06:04:02.473Z,7.60
2023-02-08T06:06:31.350Z,7.60
2023-02-08T06:09:01.133Z,7.59
2023-02-08T06:11:29.594Z,7.57
2023-02-08T06:13:57.918Z,7.57
2023-02-08T06:16:26.351Z,7.56
2023-02-08T06:18:54.731Z,7.54
2023-02-08T06:21:24.590Z,7.54
2023-02-08T06:23:53.236Z,7.52
2023-02-08T06:26:23.308Z,7.52
2023-02-08T06:28:51.888Z,7.52
2023-02-08T06:31:20.294Z,7.51
2023-02-08T06:33:48.730Z,7.51
2023-02-08T06:36:17.880Z,7.50
2023-02-08T06:38:46.753Z,7.48
2023-02-08T06:41:15.151Z,7.48
2023-02-08T06:43:44.966Z,7.48
2023-02-08T06:46:13.448Z,7.48
2023-02-08T06:48:41.837Z,7.47
2023-02-08T06:51:10.351Z,7.45
2023-02-08T06:53:38.804Z,7.45
2023-02-08T06:56:07.882Z,7.44
2023-02-08T06:58:36.196Z,7.44
2023-02-08T07:01:06.687Z,7.44
2023-02-08T07:03:35.169Z,7.42
2023-02-08T07:06:05.280Z,7.42
2023-02-08T07:08:35.090Z,7.42
2023-02-08T07:11:09.247Z,7.42
2023-02-08T07:13:38.314Z,7.41
2023-02-08T07:16:10.272Z,7.42
2023-02-08T07:18:38.910Z,7.41
2023-02-08T07:21:07.837Z,7.40
2023-02-08T07:23:36.437Z,7.39
2023-02-08T07:26:08.268Z,7.40
2023-02-08T07:28:37.503Z,7.39
2023-02-08T07:31:08.635Z,7.40
2023-02-08T07:33:37.563Z,7.40
2023-02-08T07:36:07.731Z,7.40
2023-02-08T07:38:39.416Z,7.41
2023-02-08T07:41:10.396Z,7.40
2023-02-08T07:43:41.085Z,7.39
2023-02-08T07:46:14.334Z,7.41
2023-02-08T07:48:43.572Z,7.40
2023-02-08T07:51:13.718Z,7.42
2023-02-08T07:53:42.504Z,7.41
2023-02-08T07:56:11.461Z,7.40
2023-02-08T07:58:40.497Z,7.42
2023-02-08T08:01:21.280Z,7.43
2023-02-08T08:03:50.920Z,7.44
2023-02-08T08:06:20.487Z,7.44
2023-02-08T08:08:49.069Z,7.45
2023-02-08T08:11:19.283Z,7.46
2023-02-08T08:13:47.802Z,7.46
2023-02-08T08:16:18.218Z,7.46
2023-02-08T08:18:47.053Z,7.47
2023-02-08T08:21:16.692Z,7.48
2023-02-08T08:23:45.321Z,7.50
2023-02-08T08:26:19.027Z,7.50
2023-02-08T08:28:48.553Z,7.51
2023-02-08T08:31:21.867Z,7.54
2023-02-08T08:35:47.183Z,7.52
2023-02-08T08:38:15.651Z,7.53
2023-02-08T08:40:44.157Z,7.54
2023-02-08T08:43:12.792Z,7.56
2023-02-08T08:45:41.136Z,7.58
2023-02-08T08:48:09.712Z,7.60
2023-02-08T08:50:39.256Z,7.62
2023-02-08T08:53:09.264Z,7.65
2023-02-08T08:55:37.663Z,7.68
2023-02-08T08:58:06.064Z,7.71
2023-02-08T09:00:34.563Z,7.74
2023-02-08T09:03:02.991Z,7.77
2023-02-08T09:05:32.044Z,7.82
2023-02-08T09:08:01.416Z,7.85
2023-02-08T09:10:31.915Z,7.89
2023-02-08T09:13:00.504Z,7.91
2023-02-08T09:15:30.901Z,7.96
2023-02-08T09:17:59.250Z,8.00
2023-02-08T09:20:27.768Z,8.02
2023-02-08T09:22:56.843Z,8.06
2023-02-08T09:25:25.354Z,8.09
2023-02-08T09:27:55.186Z,8.14
2023-02-08T09:30:23.867Z,8.17
2023-02-08T09:32:52.376Z,8.20
2023-02-08T09:35:20.973Z,8.22
2023-02-08T09:37:54.417Z,8.25
2023-02-08T09:40:25.490Z,8.29
2023-02-08T09:43:06.279Z,8.32
2023-02-08T09:45:57.821Z,8.36
2023-02-08T09:48:30.859Z,8.39
2023-02-08T09:51:05.543Z,8.44
2023-02-08T09:53:36.537Z,8.48
2023-02-08T09:56:10.764Z,8.52
2023-02-08T09:58:44.638Z,8.57
2023-02-08T10:01:20.433Z,8.63
2023-02-08T10:03:51.426Z,8.67
2023-02-08T10:06:21.848Z,8.70
2023-02-08T10:08:53.534Z,8.76
2023-02-08T10:11:48.991Z,8.81
2023-02-08T10:14:49.786Z,8.86
2023-02-08T10:17:51.816Z,8.91
2023-02-08T10:20:33.613Z,8.95
2023-02-08T10:23:21.961Z,9.00
2023-02-08T10:26:26.301Z,9.05
2023-02-08T10:29:30.627Z,9.09
2023-02-08T10:32:16.269Z,9.16
2023-02-08T10:34:48.835Z,9.21
2023-02-08T10:37:21.606Z,9.26
2023-02-08T10:39:50.995Z,9.30
2023-02-08T10:42:22.703Z,9.33
2023-02-08T10:45:23.585Z,9.35
2023-02-08T10:47:56.292Z,9.37
2023-02-08T10:50:31.417Z,9.40
2023-02-08T10:53:00.113Z,9.43
2023-02-08T10:55:36.181Z,9.49
2023-02-08T10:58:07.574Z,9.50
2023-02-08T11:00:40.040Z,9.56
2023-02-08T11:03:20.025Z,9.57
2023-02-08T11:05:49.067Z,9.62
2023-02-08T11:08:20.528Z,9.67
2023-02-08T11:11:00.179Z,9.71
2023-02-08T11:13:36.681Z,9.76
2023-02-08T11:16:08.992Z,9.80
2023-02-08T11:18:40.601Z,9.83
2023-02-08T11:21:22.104Z,9.88
2023-02-08T11:23:54.148Z,9.94
2023-02-08T11:26:32.764Z,10.00
2023-02-08T11:29:04.359Z,10.06
2023-02-08T11:31:36.162Z,10.11
2023-02-08T11:34:06.697Z,10.16
2023-02-08T11:36:38.852Z,10.22
2023-02-08T11:39:18.787Z,10.29
2023-02-08T11:41:49.344Z,10.31
2023-02-08T11:44:24.877Z,10.35
2023-02-08T11:46:56.290Z,10.40
2023-02-08T11:49:27.511Z,10.44
2023-02-08T11:51:56.384Z,10.46
2023-02-08T11:54:41.127Z,10.51
2023-02-08T11:57:16.755Z,10.52
2023-02-08T11:59:45.323Z,10.54
2023-02-08T12:02:38.184Z,10.59
2023-02-08T12:05:15.537Z,10.61
2023-02-08T12:08:01.240Z,10.67
2023-02-08T12:10:49.901Z,10.70
2023-02-08T12:13:49.824Z,10.74
2023-02-08T12:16:44.708Z,10.79
2023-02-08T12:20:03.188Z,10.82
2023-02-08T12:22:33.012Z,10.85
2023-02-08T12:25:22.457Z,10.91
2023-02-08T12:27:56.747Z,10.95
2023-02-08T12:30:34.828Z,11.00
2023-02-08T12:33:29.693Z,11.02
2023-02-08T12:36:22.314Z,11.04
2023-02-08T12:39:37.603Z,11.06
2023-02-08T12:42:26.703Z,11.08
2023-02-08T12:45:24.499Z,11.08
2023-02-08T12:48:07.118Z,11.10
2023-02-08T12:50:48.446Z,11.11
2023-02-08T12:53:25.682Z,11.15
2023-02-08T12:55:56.709Z,11.18
2023-02-08T12:58:31.053Z,11.23
2023-02-08T13:01:08.834Z,11.29
2023-02-08T13:03:44.699Z,11.31
2023-02-08T13:06:19.377Z,11.35
2023-02-08T13:08:55.370Z,11.36
2023-02-08T13:11:34.277Z,11.40
2023-02-08T13:14:07.533Z,11.44
2023-02-08T13:16:42.545Z,11.49
2023-02-08T13:19:28.397Z,11.54
2023-02-08T13:21:57.387Z,11.58
2023-02-08T13:24:34.680Z,11.64
2023-02-08T13:27:03.441Z,11.67
2023-02-08T13:29:33.559Z,11.73
2023-02-08T13:32:07.059Z,11.78
2023-02-08T13:34:40.011Z,11.82
2023-02-08T13:37:27.782Z,11.87
2023-02-08T13:40:06.150Z,11.88
2023-02-08T13:42:39.755Z,11.92
2023-02-08T13:45:10.780Z,11.96
2023-02-08T13:47:47.720Z,11.98
2023-02-08T13:50:49.191Z,12.03
2023-02-08T13:53:19.439Z,12.06
2023-02-08T13:56:10.199Z,12.11
2023-02-08T13:59:02.510Z,12.14
2023-02-08T14:05:48.605Z,12.18
2023-02-08T14:08:24.563Z,12.21
2023-02-08T14:11:06.004Z,12.25
2023-02-08T14:13:42.074Z,12.25
2023-02-08T14:16:30.580Z,12.30
2023-02-08T14:19:02.021Z,12.31
2023-02-08T14:21:38.145Z,12.32
2023-02-08T14:24:18.946Z,12.33
2023-02-08T14:26:47.733Z,12.36
2023-02-08T14:29:27.201Z,12.39
2023-02-08T14:31:55.963Z,12.39
2023-02-08T14:34:34.359Z,12.41
2023-02-08T14:37:08.018Z,12.42
2023-02-08T14:39:37.417Z,12.41
2023-02-08T14:42:08.947Z,12.42
2023-02-08T14:45:06.740Z,12.41
2023-02-08T14:48:20.517Z,12.40
2023-02-08T14:50:59.226Z,12.40
2023-02-08T14:53:37.515Z,12.39
2023-02-08T14:56:17.266Z,12.40
2023-02-08T14:58:50.492Z,12.40
2023-02-08T15:01:23.139Z,12.40
2023-02-08T15:03:55.493Z,12.40
2023-02-08T15:07:10.688Z,12.40
2023-02-08T15:09:41.903Z,12.38
2023-02-08T15:12:20.836Z,12.38
2023-02-08T15:14:49.906Z,12.37
2023-02-08T15:17:31.412Z,12.38
2023-02-08T15:20:01.217Z,12.38
2023-02-08T15:22:36.235Z,12.37
2023-02-08T15:25:23.956Z,12.36
2023-02-08T15:27:55.736Z,12.33
2023-02-08T15:30:33.725Z,12.33
2023-02-08T15:33:05.330Z,12.33
2023-02-08T15:35:35.532Z,12.33
2023-02-08T15:38:05.945Z,12.32
2023-02-08T15:40:36.139Z,12.32
2023-02-08T15:43:12.818Z,12.31
2023-02-08T15:45:41.405Z,12.31
2023-02-08T15:48:14.056Z,12.31
2023-02-08T15:50:43.156Z,12.29
2023-02-08T15:53:16.934Z,12.29
2023-02-08T15:55:50.295Z,12.27
2023-02-08T15:58:29.055Z,12.24
2023-02-08T16:01:00.129Z,12.24
2023-02-08T16:03:31.501Z,12.23
2023-02-08T16:06:04.441Z,12.22
2023-02-08T16:08:36.698Z,12.20
2023-02-08T16:11:10.197Z,12.20
2023-02-08T16:13:42.849Z,12.18
2023-02-08T16:16:21.489Z,12.16
2023-02-08T16:18:59.954Z,12.14
2023-02-08T16:21:35.013Z,12.12
2023-02-08T16:24:19.437Z,12.10
2023-02-08T16:26:57.320Z,12.07
2023-02-08T16:29:29.690Z,12.06
2023-02-08T16:32:12.624Z,12.03
2023-02-08T16:34:43.463Z,11.98
2023-02-08T16:37:27.550Z,11.96
2023-02-08T16:39:58.345Z,11.93
2023-02-08T16:42:31.063Z,11.90
2023-02-08T16:45:19.023Z,11.85
2023-02-08T16:47:52.560Z,11.82
2023-02-08T16:50:24.636Z,11.79
2023-02-08T16:52:58.303Z,11.76
2023-02-08T16:55:31.376Z,11.74
2023-02-08T16:58:00.584Z,11.73
2023-02-08T17:00:34.008Z,11.70
2023-02-08T17:03:03.215Z,11.67
2023-02-08T17:05:38.295Z,11.69
2023-02-08T17:08:10.006Z,11.66
2023-02-08T17:10:39.796Z,11.66
2023-02-08T17:13:19.839Z,11.64
2023-02-08T17:15:51.507Z,11.63
2023-02-08T17:18:20.866Z,11.64
2023-02-08T17:20:57.678Z,11.63
2023-02-08T17:23:26.380Z,11.62
2023-02-08T17:25:55.063Z,11.61
2023-02-08T17:28:24.108Z,11.62
2023-02-08T17:30:53.547Z,11.61
2023-02-08T17:33:22.042Z,11.59
2023-02-08T17:35:53.889Z,11.58
2023-02-08T17:38:23.093Z,11.56
2023-02-08T17:40:51.807Z,11.54
2023-02-08T17:43:20.259Z,11.52
2023-02-08T17:45:48.844Z,11.49
2023-02-08T17:48:17.264Z,11.49
2023-02-08T17:50:50.942Z,11.47
2023-02-08T17:53:21.514Z,11.45
2023-02-08T17:55:50.481Z,11.43
2023-02-08T17:58:19.265Z,11.42
2023-02-08T18:00:47.766Z,11.39
2023-02-08T18:03:17.364Z,11.36
2023-02-08T18:05:46.061Z,11.35
2023-02-08T18:08:14.913Z,11.30
2023-02-08T18:10:45.283Z,11.31
2023-02-08T18:13:13.866Z,11.27
2023-02-08T18:15:42.710Z,11.24
2023-02-08T18:18:12.117Z,11.23
2023-02-08T18:20:45.142Z,11.21
2023-02-08T18:23:13.644Z,11.18
2023-02-08T18:25:44.253Z,11.16
2023-02-08T18:28:15.265Z,11.14
2023-02-08T18:30:43.932Z,11.13
2023-02-08T18:33:14.855Z,11.09
2023-02-08T18:35:49.849Z,11.08
2023-02-08T18:38:18.563Z,11.06
2023-02-08T18:40:48.470Z,11.04
2023-02-08T18:43:17.997Z,11.01
2023-02-08T18:45:49.389Z,10.99
2023-02-08T18:48:18.748Z,10.96
2023-02-08T18:50:47.185Z,10.93
2023-02-08T18:53:16.232Z,10.90
2023-02-08T18:55:55.440Z,10.89
2023-02-08T18:58:24.861Z,10.87
2023-02-08T19:00:54.282Z,10.84
2023-02-08T19:03:24.271Z,10.80
2023-02-08T19:05:52.770Z,10.79
2023-02-08T19:08:22.231Z,10.76
2023-02-08T19:10:50.762Z,10.74
2023-02-08T19:13:20.937Z,10.73
2023-02-08T19:15:49.493Z,10.71
2023-02-08T19:18:17.960Z,10.68
2023-02-08T19:20:46.488Z,10.66
2023-02-08T19:23:15.009Z,10.64
2023-02-08T19:25:44.237Z,10.63
2023-02-08T19:28:13.463Z,10.61
2023-02-08T19:30:43.638Z,10.61
2023-02-08T19:33:12.146Z,10.58
2023-02-08T19:35:40.864Z,10.57
2023-02-08T19:38:09.718Z,10.56
2023-02-08T19:40:38.796Z,10.54
2023-02-08T19:43:07.319Z,10.53
2023-02-08T19:45:36.667Z,10.52
2023-02-08T19:48:07.204Z,10.50
2023-02-08T19:50:36.025Z,10.49
2023-02-08T19:53:04.527Z,10.46
2023-02-08T19:55:33.089Z,10.44
2023-02-08T19:58:01.768Z,10.43
2023-02-08T20:00:30.327Z,10.40
2023-02-08T20:02:58.876Z,10.41
2023-02-08T20:05:30.480Z,10.40
2023-02-08T20:08:02.154Z,10.40
2023-02-08T20:10:30.608Z,10.38
2023-02-08T20:12:59.017Z,10.36
2023-02-08T20:15:27.526Z,10.36
2023-02-08T20:17:57.766Z,10.34
2023-02-08T20:20:26.224Z,10.33
2023-02-08T20:22:56.218Z,10.34
2023-02-08T20:25:25.072Z,10.33
2023-02-08T20:27:54.561Z,10.31
2023-02-08T20:30:25.183Z,10.31
2023-02-08T20:32:53.969Z,10.28
2023-02-08T20:35:23.254Z,10.27
2023-02-08T20:37:51.742Z,10.25
2023-02-08T20:40:22.095Z,10.24
2023-02-08T20:42:50.448Z,10.21
2023-02-08T20:45:19.047Z,10.21
2023-02-08T20:47:47.620Z,10.21
2023-02-08T20:50:19.678Z,10.20
2023-02-08T20:52:49.370Z,10.18
2023-02-08T20:55:18.644Z,10.17
2023-02-08T20:57:48.834Z,10.18
2023-02-08T21:00:17.948Z,10.17
2023-02-08T21:02:48.771Z,10.18
2023-02-08T21:05:18.399Z,10.17
2023-02-08T21:07:47.150Z,10.17
2023-02-08T21:10:15.883Z,10.15
2023-02-08T21:12:44.386Z,10.15
2023-02-08T21:15:14.568Z,10.14
2023-02-08T21:17:43.614Z,10.12
2023-02-08T21:20:14.572Z,10.11
2023-02-08T21:22:43.384Z,10.10
2023-02-08T21:25:11.786Z,10.09
2023-02-08T21:27:40.428Z,10.08
2023-02-08T21:30:10.566Z,10.08
2023-02-08T21:32:41.740Z,10.08
2023-02-08T21:35:10.215Z,10.06
2023-02-08T21:37:39.032Z,10.05
2023-02-08T21:40:08.127Z,10.04
2023-02-08T21:42:37.081Z,10.01
2023-02-08T21:45:08.112Z,10.00
2023-02-08T21:47:38.971Z,10.00
2023-02-08T21:50:25.966Z,9.98
2023-02-08T21:53:23.433Z,9.97
2023-02-08T21:55:52.260Z,9.94
2023-02-08T21:58:20.663Z,9.92
2023-02-08T22:00:49.254Z,9.93
2023-02-08T22:03:19.254Z,9.93
2023-02-08T22:05:48.220Z,9.93
2023-02-08T22:08:16.966Z,9.93
2023-02-08T22:10:57.563Z,9.91
2023-02-08T22:13:27.041Z,9.91
2023-02-08T22:15:55.513Z,9.89
2023-02-08T22:18:25.852Z,9.89
2023-02-08T22:20:55.516Z,9.88
2023-02-08T22:23:23.938Z,9.87
2023-02-08T22:25:52.519Z,9.86
2023-02-08T22:28:21.054Z,9.84
2023-02-08T22:30:49.880Z,9.85
2023-02-08T22:33:18.904Z,9.83
2023-02-08T22:35:49.523Z,9.83
2023-02-08T22:38:18.028Z,9.83
2023-02-08T22:40:46.965Z,9.81
2023-02-08T22:43:15.829Z,9.81
2023-02-08T22:45:44.748Z,9.80
2023-02-08T22:48:13.239Z,9.80
2023-02-08T22:50:41.684Z,9.78
2023-02-08T22:53:11.594Z,9.78
2023-02-08T22:55:40.034Z,9.76
2023-02-08T22:58:08.567Z,9.75
2023-02-08T23:00:39.781Z,9.75
2023-02-08T23:03:08.718Z,9.72
2023-02-08T23:05:41.858Z,9.72
2023-02-08T23:08:13.257Z,9.72
2023-02-08T23:10:41.746Z,9.70
2023-02-08T23:13:10.882Z,9.69
2023-02-08T23:15:42.740Z,9.67
2023-02-08T23:18:11.456Z,9.66
2023-02-08T23:20:41.480Z,9.65
2023-02-08T23:23:11.632Z,9.62
2023-02-08T23:25:41.908Z,9.62
2023-02-08T23:28:12.895Z,9.59
2023-02-08T23:30:42.585Z,9.58
2023-02-08T23:33:11.700Z,9.54
2023-02-08T23:35:41.868Z,9.52
2023-02-08T23:38:11.874Z,9.52
2023-02-08T23:40:42.111Z,9.49
2023-02-08T23:43:11.069Z,9.47
2023-02-08T23:45:39.612Z,9.45
2023-02-08T23:48:08.415Z,9.43
2023-02-08T23:50:36.788Z,9.43
2023-02-08T23:53:05.623Z,9.42
2023-02-08T23:55:35.645Z,9.42
2023-02-08T23:58:04.356Z,9.41
